createdAt,value
2022-08-17T00:00:34.834Z,5.40
2022-08-17T00:03:13.557Z,5.55
2022-08-17T00:05:45.099Z,4.80
2022-08-17T00:08:15.217Z,5.90
2022-08-17T00:10:44.459Z,7.53
2022-08-17T00:13:17.275Z,7.63
2022-08-17T00:15:45.478Z,8.25
2022-08-17T00:19:06.015Z,6.18
2022-08-17T00:21:03.998Z,7.40
2022-08-17T00:23:39.399Z,6.33
2022-08-17T00:26:43.428Z,6.53
2022-08-17T00:29:06.892Z,6.43
2022-08-17T00:31:35.773Z,8.43
2022-08-17T00:34:04.666Z,8.00
2022-08-17T00:36:32.574Z,6.95
2022-08-17T00:39:00.555Z,6.05
2022-08-17T00:41:29.384Z,7.30
2022-08-17T00:44:01.308Z,7.60
2022-08-17T00:46:33.331Z,5.63
2022-08-17T00:49:01.560Z,4.95
2022-08-17T00:51:35.528Z,6.15
2022-08-17T00:54:09.567Z,5.60
2022-08-17T00:56:42.708Z,5.55
2022-08-17T00:59:12.625Z,8.60
2022-08-17T01:01:42.603Z,5.10
2022-08-17T01:04:12.081Z,5.00
2022-08-17T01:06:42.758Z,5.80
2022-08-17T01:09:10.803Z,6.93
2022-08-17T01:11:40.602Z,7.45
2022-08-17T01:14:09.381Z,7.97
2022-08-17T01:16:38.422Z,8.45
2022-08-17T01:19:16.700Z,8.52
2022-08-17T01:21:51.164Z,6.50
2022-08-17T01:24:20.407Z,5.82
2022-08-17T01:26:48.547Z,7.28
2022-08-17T01:29:17.244Z,5.90
2022-08-17T01:31:48.020Z,6.20
2022-08-17T01:34:17.791Z,7.13
2022-08-17T01:36:49.837Z,8.70
2022-08-17T01:39:23.158Z,6.27
2022-08-17T01:41:54.466Z,6.80
2022-08-17T01:44:27.774Z,6.72
2022-08-17T01:46:55.696Z,7.22
2022-08-17T01:49:23.911Z,6.63
2022-08-17T01:51:51.898Z,8.63
2022-08-17T01:54:22.068Z,7.63
2022-08-17T01:56:51.732Z,8.37
2022-08-17T01:59:21.233Z,6.43
2022-08-17T02:01:49.414Z,7.55
2022-08-17T02:04:17.548Z,7.88
2022-08-17T02:06:53.314Z,6.65
2022-08-17T02:09:25.475Z,5.47
2022-08-17T02:11:54.644Z,5.30
2022-08-17T02:14:26.053Z,6.28
2022-08-17T02:16:56.075Z,7.80
2022-08-17T02:19:24.029Z,8.75
2022-08-17T02:21:54.543Z,7.10
2022-08-17T02:24:59.932Z,8.40
2022-08-17T02:27:15.928Z,5.50
2022-08-17T02:29:43.918Z,8.00
2022-08-17T02:32:20.762Z,7.30
2022-08-17T02:34:56.526Z,6.85
2022-08-17T02:37:24.468Z,7.57
2022-08-17T02:39:53.774Z,6.90
2022-08-17T02:42:28.604Z,7.43
2022-08-17T02:44:56.556Z,8.07
2022-08-17T02:47:24.998Z,5.73
2022-08-17T02:49:55.916Z,7.03
2022-08-17T02:52:53.270Z,8.40
2022-08-17T02:55:20.556Z,7.20
2022-08-17T02:57:49.405Z,8.03
2022-08-17T03:00:21.334Z,8.82
2022-08-17T03:02:50.016Z,9.35
2022-08-17T03:05:21.306Z,7.77
2022-08-17T03:07:52.207Z,8.77
2022-08-17T03:10:22.527Z,9.23
2022-08-17T03:12:50.665Z,7.20
2022-08-17T03:15:20.930Z,8.67
2022-08-17T03:17:49.478Z,8.38
2022-08-17T03:20:17.478Z,5.72
2022-08-17T03:22:53.323Z,5.60
2022-08-17T03:25:26.070Z,6.00
2022-08-17T03:27:54.508Z,6.53
2022-08-17T03:30:23.659Z,5.65
2022-08-17T03:32:54.742Z,5.90
2022-08-17T03:35:24.317Z,5.40
2022-08-17T03:38:00.523Z,5.97
2022-08-17T03:40:55.172Z,5.15
2022-08-17T03:43:22.845Z,4.83
2022-08-17T03:46:10.756Z,6.40
2022-08-17T03:49:13.369Z,7.72
2022-08-17T03:51:58.633Z,5.68
2022-08-17T03:54:58.418Z,5.90
2022-08-17T03:57:31.361Z,5.80
2022-08-17T03:59:59.740Z,4.75
2022-08-17T04:02:31.659Z,6.60
2022-08-17T04:05:00.039Z,6.90
2022-08-17T04:07:30.447Z,5.30
2022-08-17T04:09:59.401Z,7.60
2022-08-17T04:12:30.784Z,5.93
2022-08-17T04:14:59.389Z,6.13
2022-08-17T04:17:29.102Z,7.40
2022-08-17T04:19:59.182Z,6.50
2022-08-17T04:22:30.732Z,9.13
2022-08-17T04:25:02.942Z,9.30
2022-08-17T04:27:32.092Z,8.63
2022-08-17T04:29:59.996Z,8.85
2022-08-17T04:32:59.432Z,6.37
2022-08-17T04:35:19.956Z,6.97
2022-08-17T04:37:47.989Z,7.97
2022-08-17T04:40:33.276Z,5.30
2022-08-17T04:43:04.140Z,8.10
2022-08-17T04:45:32.733Z,5.32
2022-08-17T04:48:02.108Z,4.70
2022-08-17T04:50:29.962Z,5.93
2022-08-17T04:52:58.123Z,5.88
2022-08-17T04:55:26.321Z,7.85
2022-08-17T04:57:56.628Z,8.63
2022-08-17T05:00:26.291Z,6.30
2022-08-17T05:02:56.562Z,8.10
2022-08-17T05:05:27.390Z,5.70
2022-08-17T05:07:58.936Z,8.30
2022-08-17T05:10:30.189Z,7.93
2022-08-17T05:13:00.140Z,7.40
2022-08-17T05:15:32.986Z,8.80
2022-08-17T05:18:01.218Z,6.53
2022-08-17T05:20:29.901Z,9.05
2022-08-17T05:22:59.546Z,7.13
2022-08-17T05:25:29.976Z,6.55
2022-08-17T05:28:04.520Z,6.90
2022-08-17T05:30:36.145Z,6.97
2022-08-17T05:33:08.796Z,8.43
2022-08-17T05:35:39.511Z,7.00
2022-08-17T05:38:08.229Z,6.05
2022-08-17T05:40:37.057Z,6.73
2022-08-17T05:43:07.766Z,7.95
2022-08-17T05:45:54.572Z,7.80
2022-08-17T05:48:35.813Z,8.18
2022-08-17T05:51:28.857Z,7.97
2022-08-17T05:54:08.294Z,5.63
2022-08-17T05:56:56.217Z,6.18
2022-08-17T05:59:34.175Z,8.00
2022-08-17T06:02:12.569Z,7.93
2022-08-17T06:04:56.062Z,9.23
2022-08-17T06:07:32.793Z,9.02
2022-08-17T06:10:07.009Z,8.27
2022-08-17T06:13:00.736Z,8.25
2022-08-17T06:15:32.931Z,9.38
2022-08-17T06:18:06.695Z,8.18
2022-08-17T06:20:44.789Z,9.43
2022-08-17T06:23:19.215Z,8.07
2022-08-17T06:25:50.925Z,7.68
2022-08-17T06:28:31.338Z,8.32
2022-08-17T06:31:06.953Z,8.68
2022-08-17T06:33:39.396Z,12.77
2022-08-17T06:36:22.459Z,9.50
2022-08-17T06:39:00.698Z,9.53
2022-08-17T06:41:38.963Z,12.63
2022-08-17T06:44:49.933Z,12.63
2022-08-17T06:47:09.108Z,12.13
2022-08-17T06:49:50.715Z,11.77
2022-08-17T06:52:45.584Z,12.60
2022-08-17T06:55:21.216Z,10.98
2022-08-17T06:57:53.487Z,10.33
2022-08-17T07:00:24.850Z,9.70
2022-08-17T07:02:58.781Z,11.83
2022-08-17T07:05:33.693Z,10.25
2022-08-17T07:08:09.235Z,11.27
2022-08-17T07:10:42.642Z,7.10
2022-08-17T07:13:32.342Z,7.68
2022-08-17T07:16:19.442Z,7.90
2022-08-17T07:18:50.869Z,7.72
2022-08-17T07:21:29.545Z,7.82
2022-08-17T07:24:07.924Z,5.38
2022-08-17T07:26:35.762Z,5.95
2022-08-17T07:29:03.754Z,9.05
2022-08-17T07:31:33.695Z,8.50
2022-08-17T07:34:07.950Z,9.43
2022-08-17T07:36:37.204Z,9.43
2022-08-17T07:39:05.871Z,9.27
2022-08-17T07:41:57.430Z,7.13
2022-08-17T07:44:29.520Z,7.32
2022-08-17T07:47:15.929Z,6.77
2022-08-17T07:49:46.827Z,7.93
2022-08-17T07:52:50.295Z,9.23
2022-08-17T07:55:29.309Z,6.97
2022-08-17T07:57:59.387Z,10.90
2022-08-17T08:00:31.442Z,5.32
2022-08-17T08:03:05.964Z,7.72
2022-08-17T08:05:50.286Z,5.50
2022-08-17T08:08:28.055Z,5.60
2022-08-17T08:11:03.248Z,4.95
2022-08-17T08:13:33.242Z,6.85
2022-08-17T08:16:25.334Z,7.38
2022-08-17T08:18:57.799Z,7.03
2022-08-17T08:21:47.543Z,6.13
2022-08-17T08:24:36.684Z,5.47
2022-08-17T08:27:12.195Z,6.22
2022-08-17T08:29:48.941Z,7.22
2022-08-17T08:32:28.502Z,7.85
2022-08-17T08:35:04.614Z,8.70
2022-08-17T08:37:50.942Z,5.43
2022-08-17T08:40:34.827Z,7.05
2022-08-17T08:43:15.730Z,9.00
2022-08-17T08:45:51.442Z,7.18
2022-08-17T08:48:55.966Z,4.40
2022-08-17T08:51:40.913Z,6.93
2022-08-17T08:54:35.589Z,4.57
2022-08-17T08:57:26.458Z,4.70
2022-08-17T09:00:10.792Z,7.70
2022-08-17T09:03:02.610Z,4.22
2022-08-17T09:05:42.283Z,6.47
2022-08-17T09:08:19.105Z,5.90
2022-08-17T09:10:57.513Z,7.93
2022-08-17T09:13:36.198Z,7.50
2022-08-17T09:16:09.956Z,5.07
2022-08-17T09:19:01.894Z,5.30
2022-08-17T09:21:38.145Z,5.65
2022-08-17T09:24:25.119Z,4.00
2022-08-17T09:26:59.956Z,6.03
2022-08-17T09:29:35.131Z,6.05
2022-08-17T09:32:10.358Z,5.68
2022-08-17T09:34:47.061Z,3.77
2022-08-17T09:37:23.955Z,3.60
2022-08-17T09:40:08.462Z,3.42
2022-08-17T09:42:49.802Z,8.15
2022-08-17T09:45:28.890Z,14.88
2022-08-17T09:48:02.092Z,13.17
2022-08-17T09:51:04.200Z,21.55
2022-08-17T09:53:25.609Z,11.93
2022-08-17T09:56:18.671Z,6.65
2022-08-17T09:59:04.051Z,5.93
2022-08-17T10:01:39.866Z,10.07
2022-08-17T10:04:29.353Z,4.72
2022-08-17T10:07:04.396Z,5.75
2022-08-17T10:09:44.287Z,6.10
2022-08-17T10:12:21.450Z,8.17
2022-08-17T10:15:07.742Z,7.82
2022-08-17T10:17:47.437Z,5.18
2022-08-17T10:20:21.564Z,4.78
2022-08-17T10:23:12.347Z,5.30
2022-08-17T10:26:09.398Z,6.88
2022-08-17T10:28:41.649Z,7.70
2022-08-17T10:34:27.874Z,4.55
2022-08-17T10:37:13.003Z,5.80
2022-08-17T10:39:53.083Z,6.93
2022-08-17T10:42:32.232Z,5.28
2022-08-17T10:45:06.514Z,9.13
2022-08-17T10:48:04.665Z,7.07
2022-08-17T10:50:58.618Z,7.80
2022-08-17T10:53:55.049Z,7.18
2022-08-17T10:56:49.547Z,4.45
2022-08-17T10:59:50.695Z,8.90
2022-08-17T11:02:41.298Z,5.90
2022-08-17T11:05:27.535Z,6.83
2022-08-17T11:08:22.065Z,6.72
2022-08-17T11:11:20.483Z,5.75
2022-08-17T11:14:06.206Z,6.50
2022-08-17T11:16:50.648Z,5.00
2022-08-17T11:19:56.095Z,5.00
2022-08-17T11:22:59.050Z,6.03
2022-08-17T11:25:39.251Z,4.53
2022-08-17T11:28:15.038Z,5.55
2022-08-17T11:30:48.582Z,5.55
2022-08-17T11:33:54.203Z,5.30
2022-08-17T11:36:49.866Z,3.60
2022-08-17T11:39:45.131Z,4.20
2022-08-17T11:42:28.636Z,4.82
2022-08-17T11:44:58.961Z,6.00
2022-08-17T11:48:23.653Z,4.72
2022-08-17T11:51:11.240Z,7.35
2022-08-17T11:54:30.974Z,5.97
2022-08-17T11:56:52.862Z,5.80
2022-08-17T12:00:02.882Z,6.60
2022-08-17T12:02:47.422Z,4.72
2022-08-17T12:05:34.709Z,6.43
2022-08-17T12:08:17.667Z,5.93
2022-08-17T12:11:18.900Z,6.03
2022-08-17T12:15:12.672Z,5.25
2022-08-17T12:17:46.682Z,6.05
2022-08-17T12:20:24.075Z,8.18
2022-08-17T12:23:01.223Z,6.40
2022-08-17T12:25:36.669Z,6.90
2022-08-17T12:28:07.667Z,6.83
2022-08-17T12:30:37.747Z,7.07
2022-08-17T12:33:25.665Z,5.82
2022-08-17T12:35:59.621Z,5.20
2022-08-17T12:38:33.074Z,7.35
2022-08-17T12:41:22.345Z,5.27
2022-08-17T12:43:58.637Z,5.72
2022-08-17T12:46:26.523Z,5.90
2022-08-17T12:49:12.503Z,6.72
2022-08-17T12:51:44.360Z,5.70
2022-08-17T12:54:24.224Z,9.73
2022-08-17T12:56:52.401Z,7.50
2022-08-17T12:59:30.412Z,7.43
2022-08-17T13:01:59.071Z,5.80
2022-08-17T13:04:29.722Z,9.27
2022-08-17T13:06:59.930Z,7.45
2022-08-17T13:09:40.159Z,7.97
2022-08-17T13:12:09.137Z,9.10
2022-08-17T13:14:37.155Z,7.07
2022-08-17T13:17:09.888Z,5.80
2022-08-17T13:19:49.254Z,5.22
2022-08-17T13:22:18.567Z,6.55
2022-08-17T13:24:54.393Z,6.77
2022-08-17T13:27:25.089Z,6.45
2022-08-17T13:29:57.315Z,5.85
2022-08-17T13:32:39.963Z,6.55
2022-08-17T13:35:39.165Z,5.40
2022-08-17T13:38:14.033Z,6.32
2022-08-17T13:40:59.677Z,5.00
2022-08-17T13:43:45.581Z,7.00
2022-08-17T13:46:21.185Z,5.80
2022-08-17T13:48:59.986Z,5.35
2022-08-17T13:51:33.572Z,4.85
2022-08-17T13:54:09.447Z,5.23
2022-08-17T13:56:57.577Z,4.40
2022-08-17T13:59:54.240Z,5.23
2022-08-17T14:02:20.323Z,4.90
2022-08-17T14:04:49.110Z,5.72
2022-08-17T14:07:32.077Z,3.70
2022-08-17T14:10:03.060Z,3.28
2022-08-17T14:12:34.284Z,3.33
2022-08-17T14:15:03.313Z,4.70
2022-08-17T14:17:36.335Z,4.00
2022-08-17T14:20:09.175Z,5.05
2022-08-17T14:22:42.177Z,4.20
2022-08-17T14:25:21.525Z,3.90
2022-08-17T14:27:53.127Z,4.18
2022-08-17T14:30:23.591Z,4.53
2022-08-17T14:32:52.733Z,3.40
2022-08-17T14:35:23.811Z,3.00
2022-08-17T14:37:54.020Z,4.00
2022-08-17T14:40:24.769Z,3.42
2022-08-17T14:42:55.143Z,4.00
2022-08-17T14:45:30.057Z,4.20
2022-08-17T14:48:03.978Z,4.78
2022-08-17T14:50:35.266Z,4.38
2022-08-17T14:53:06.934Z,3.78
2022-08-17T14:55:40.412Z,4.07
2022-08-17T14:58:08.983Z,4.00
2022-08-17T15:00:37.219Z,4.22
2022-08-17T15:03:06.000Z,4.78
2022-08-17T15:05:37.555Z,3.43
2022-08-17T15:08:08.169Z,3.40
2022-08-17T15:10:37.272Z,3.70
2022-08-17T15:13:05.237Z,4.15
2022-08-17T15:15:33.125Z,5.13
2022-08-17T15:18:02.402Z,4.05
2022-08-17T15:20:31.232Z,6.18
2022-08-17T15:22:59.692Z,3.88
2022-08-17T15:25:31.655Z,4.28
2022-08-17T15:28:00.947Z,3.90
2022-08-17T15:30:29.859Z,4.25
2022-08-17T15:33:01.750Z,3.42
2022-08-17T15:35:33.043Z,3.90
2022-08-17T15:38:10.755Z,3.10
2022-08-17T15:40:44.080Z,4.07
2022-08-17T15:43:14.288Z,6.00
2022-08-17T15:45:43.038Z,6.40
2022-08-17T15:48:14.208Z,6.87
2022-08-17T15:50:45.060Z,5.47
2022-08-17T15:53:13.018Z,3.67
2022-08-17T15:55:43.898Z,3.10
2022-08-17T15:58:11.817Z,3.37
2022-08-17T16:00:51.592Z,4.97
2022-08-17T16:03:58.445Z,3.55
2022-08-17T16:06:09.516Z,3.92
2022-08-17T16:08:41.601Z,3.87
2022-08-17T16:11:11.998Z,4.00
2022-08-17T16:13:40.717Z,6.57
2022-08-17T16:16:09.388Z,5.30
2022-08-17T16:18:38.793Z,4.30
2022-08-17T16:21:31.315Z,5.03
2022-08-17T16:24:13.096Z,3.83
2022-08-17T16:26:43.480Z,4.13
2022-08-17T16:29:11.683Z,3.80
2022-08-17T16:31:40.062Z,4.28
2022-08-17T16:34:15.975Z,4.82
2022-08-17T16:36:51.822Z,5.30
2022-08-17T16:39:23.813Z,4.93
2022-08-17T16:41:53.001Z,5.10
2022-08-17T16:44:21.938Z,4.25
2022-08-17T16:46:50.445Z,4.95
2022-08-17T16:49:36.088Z,5.00
2022-08-17T16:52:09.823Z,6.05
2022-08-17T16:54:39.516Z,4.60
2022-08-17T16:57:08.785Z,5.80
2022-08-17T16:59:40.857Z,5.95
2022-08-17T17:02:14.230Z,4.68
2022-08-17T17:04:49.169Z,4.95
2022-08-17T17:07:34.818Z,4.60
2022-08-17T17:10:06.671Z,4.70
2022-08-17T17:13:02.397Z,5.32
2022-08-17T17:15:51.665Z,5.43
2022-08-17T17:18:24.257Z,4.60
2022-08-17T17:20:57.284Z,3.85
2022-08-17T17:23:38.322Z,5.97
2022-08-17T17:26:20.671Z,4.65
2022-08-17T17:29:02.234Z,6.22
2022-08-17T17:31:38.279Z,5.43
2022-08-17T17:34:11.104Z,5.03
2022-08-17T17:36:41.967Z,4.00
2022-08-17T17:39:14.340Z,3.63
2022-08-17T17:41:47.642Z,7.15
2022-08-17T17:44:21.325Z,6.45
2022-08-17T17:46:54.252Z,6.70
2022-08-17T17:49:22.250Z,5.80
2022-08-17T17:52:10.136Z,6.65
2022-08-17T17:54:56.699Z,4.68
2022-08-17T17:57:55.818Z,4.80
2022-08-17T18:00:27.184Z,6.77
2022-08-17T18:03:08.569Z,3.60
2022-08-17T18:06:01.153Z,3.85
2022-08-17T18:08:48.983Z,4.33
2022-08-17T18:11:35.027Z,4.87
2022-08-17T18:14:18.401Z,5.87
2022-08-17T18:16:48.055Z,6.63
2022-08-17T18:19:20.041Z,4.20
2022-08-17T18:21:53.938Z,4.35
2022-08-17T18:24:31.369Z,4.90
2022-08-17T18:27:02.212Z,4.10
2022-08-17T18:29:43.608Z,4.50
2022-08-17T18:32:32.350Z,8.27
2022-08-17T18:35:27.695Z,4.20
2022-08-17T18:37:57.657Z,4.73
2022-08-17T18:40:38.242Z,5.25
2022-08-17T18:43:13.277Z,5.45
2022-08-17T18:45:45.898Z,5.35
2022-08-17T18:48:33.353Z,4.95
2022-08-17T18:51:06.142Z,5.05
2022-08-17T18:53:38.459Z,5.10
2022-08-17T18:56:33.746Z,4.20
2022-08-17T18:59:11.333Z,4.80
2022-08-17T19:02:00.809Z,4.65
2022-08-17T19:04:35.178Z,4.20
2022-08-17T19:07:12.903Z,3.97
2022-08-17T19:09:46.414Z,4.13
2022-08-17T19:12:27.386Z,4.70
2022-08-17T19:14:57.871Z,5.70
2022-08-17T19:17:35.357Z,5.90
2022-08-17T19:20:11.405Z,4.10
2022-08-17T19:23:03.235Z,3.83
2022-08-17T19:25:34.793Z,3.85
2022-08-17T19:28:21.599Z,4.00
2022-08-17T19:30:55.838Z,4.32
2022-08-17T19:33:23.955Z,6.10
2022-08-17T19:36:02.906Z,5.57
2022-08-17T19:38:42.794Z,3.83
2022-08-17T19:41:20.292Z,4.45
2022-08-17T19:44:10.103Z,4.87
2022-08-17T19:46:48.705Z,6.95
2022-08-17T19:49:33.240Z,6.10
2022-08-17T19:52:34.207Z,4.80
2022-08-17T19:55:08.346Z,5.63
2022-08-17T19:57:47.264Z,7.07
2022-08-17T20:00:16.894Z,6.00
2022-08-17T20:02:57.492Z,5.80
2022-08-17T20:05:29.528Z,5.33
2022-08-17T20:08:04.219Z,8.32
2022-08-17T20:10:40.377Z,11.20
2022-08-17T20:13:12.796Z,8.77
2022-08-17T20:15:42.985Z,8.48
2022-08-17T20:18:18.408Z,5.25
2022-08-17T20:20:54.757Z,5.05
2022-08-17T20:23:41.044Z,4.50
2022-08-17T20:26:22.964Z,5.07
2022-08-17T20:29:09.969Z,6.45
2022-08-17T20:31:44.451Z,5.90
2022-08-17T20:34:36.993Z,6.60
2022-08-17T20:37:09.216Z,4.95
2022-08-17T20:39:41.702Z,5.55
2022-08-17T20:42:28.393Z,5.80
2022-08-17T20:44:58.776Z,7.07
2022-08-17T20:47:29.889Z,6.35
2022-08-17T20:50:03.043Z,5.47
2022-08-17T20:52:48.074Z,6.93
2022-08-17T20:55:53.500Z,5.22
2022-08-17T20:58:48.672Z,6.28
2022-08-17T21:01:24.289Z,7.10
2022-08-17T21:03:54.363Z,6.90
2022-08-17T21:06:24.969Z,5.20
2022-08-17T21:08:58.567Z,7.95
2022-08-17T21:12:04.119Z,6.28
2022-08-17T21:14:59.633Z,6.40
2022-08-17T21:17:43.961Z,7.70
2022-08-17T21:20:32.312Z,7.18
2022-08-17T21:23:27.201Z,5.77
2022-08-17T21:26:13.701Z,5.40
2022-08-17T21:29:00.396Z,6.90
2022-08-17T21:31:35.555Z,7.90
2022-08-17T21:34:27.635Z,6.15
2022-08-17T21:36:57.713Z,4.60
2022-08-17T21:39:41.681Z,6.43
2022-08-17T21:42:12.951Z,5.97
2022-08-17T21:44:47.501Z,5.35
2022-08-17T21:47:21.024Z,6.28
2022-08-17T21:49:49.280Z,6.53
2022-08-17T21:52:21.085Z,5.80
2022-08-17T21:54:52.442Z,6.27
2022-08-17T21:57:23.273Z,5.23
2022-08-17T21:59:59.595Z,5.38
2022-08-17T22:02:33.232Z,6.40
2022-08-17T22:05:10.198Z,9.73
2022-08-17T22:07:43.992Z,6.93
2022-08-17T22:10:31.086Z,6.63
2022-08-17T22:13:17.172Z,6.00
2022-08-17T22:15:51.417Z,5.80
2022-08-17T22:18:26.180Z,7.33
2022-08-17T22:20:57.871Z,5.75
2022-08-17T22:23:46.796Z,8.13
2022-08-17T22:26:17.776Z,8.25
2022-08-17T22:28:48.872Z,8.80
2022-08-17T22:31:20.349Z,6.15
2022-08-17T22:33:49.959Z,5.80
2022-08-17T22:36:25.015Z,5.50
2022-08-17T22:38:55.318Z,5.57
2022-08-17T22:41:34.354Z,5.70
2022-08-17T22:44:14.009Z,6.32
2022-08-17T22:46:57.074Z,6.72
2022-08-17T22:49:31.066Z,6.38
2022-08-17T22:52:32.677Z,5.10
2022-08-17T22:55:22.043Z,4.90
2022-08-17T22:58:08.217Z,4.03
2022-08-17T23:00:40.058Z,4.70
2022-08-17T23:03:15.336Z,5.00
2022-08-17T23:05:45.608Z,4.85
2022-08-17T23:08:14.842Z,4.63
2022-08-17T23:10:46.466Z,4.97
2022-08-17T23:13:14.412Z,4.60
2022-08-17T23:15:44.529Z,4.60
2022-08-17T23:18:13.710Z,4.85
2022-08-17T23:20:42.444Z,4.95
2022-08-17T23:23:12.536Z,5.25
2022-08-17T23:25:44.392Z,4.80
2022-08-17T23:28:12.389Z,4.90
2022-08-17T23:30:46.599Z,5.05
2022-08-17T23:33:30.891Z,4.75
2022-08-17T23:35:59.556Z,5.00
2022-08-17T23:38:28.684Z,5.67
2022-08-17T23:40:59.904Z,5.85
2022-08-17T23:43:29.646Z,6.38
2022-08-17T23:45:59.678Z,5.67
2022-08-17T23:48:35.831Z,5.90
2022-08-17T23:51:09.137Z,6.20
2022-08-17T23:53:40.349Z,6.22
2022-08-17T23:56:11.091Z,6.03
2022-08-17T23:58:42.258Z,5.72
